Dallas, Texas
Traffic Map
Current Weather Conditions
Dallas, Texas
Clear
Clear
26°
Feels Like: 26°
Wind Chill: 26° Ceiling: Unl
Heat Index: 26° Visibility: 10mi
Dew Point: 16° Wind: 7mph
Humidity: 54% Direction: 220° (SW)
Pressure: 30.15in Gusts: 0mph
Raw Report DataKDAL 251553Z AUTO 22006KT 10SM CLR 26/16 A3015 RMK AO2 SLP202 T02560156
Traffic Incident Summary
Active as of:
Severity:
Category:
InformationThere was an issue retrieving the traffic information for this location. Please try a different location or try again shortly.
Advertisements
Track Severe Weather on mobile